Time;durP1;ratioP1;P1;durP2;ratioP2;P2;SDS_P1;SDS_P2;PMS_P1;PMS_P2;Temp;Humidity;BMP_temperature;BMP_pressure;BME280_temperature;BME280_humidity;BME280_pressure;Samples;Min_cycle;Max_cycle;Signal;HPM_P1;HPM_P2
2022/06/05 00:01:45;;;;;;;;;;;;;;;16.69;40.20;95728.81;5062217;28;20069;-64
2022/06/05 00:04:22;;;;;;;;;;;;;;;16.64;40.32;95734.84;5068549;28;19989;-60
2022/06/05 00:06:57;;;;;;;;;;;;;;;16.38;41.15;95731.22;5063606;28;19957;-62
2022/06/05 00:09:29;;;;;;;;;;;;;;;16.46;40.88;95736.34;5044572;28;20450;-62
2022/06/05 00:12:03;;;;;;;;;;;;;;;16.46;40.87;95741.72;5055576;28;20013;-62
2022/06/05 00:14:28;;;;;;;;;;;;;;;16.40;40.89;95745.25;5053919;28;19950;-61
2022/06/05 00:16:53;;;;;;;;;;;;;;;16.45;40.76;95737.38;5062989;28;20255;-61
2022/06/05 00:19:18;;;;;;;;;;;;;;;16.43;40.80;95746.69;5059450;28;20008;-60
2022/06/05 00:21:44;;;;;;;;;;;;;;;16.50;40.74;95740.28;5063013;28;19967;-61
2022/06/05 00:24:09;;;;;;;;;;;;;;;16.53;40.55;95733.66;5055809;28;20509;-61
2022/06/05 00:26:46;;;;;;;;;;;;;;;16.52;40.68;95740.03;5062343;28;20186;-60
2022/06/05 00:29:15;;;;;;;;;;;;;;;16.56;40.52;95757.41;5042860;28;19987;-61
2022/06/05 00:31:52;;;;;;;;;;;;;;;16.55;40.61;95754.94;5041577;28;20335;-62
2022/06/05 00:34:18;;;;;;;;;;;;;;;16.55;40.58;95746.88;5064616;28;19962;-62
2022/06/05 00:36:52;;;;;;;;;;;;;;;16.59;40.69;95748.91;5065954;28;20420;-62
2022/06/05 00:39:28;;;;;;;;;;;;;;;16.46;41.10;95757.84;5057583;28;20016;-62
2022/06/05 00:42:02;;;;;;;;;;;;;;;16.51;41.20;95767.94;5066010;28;19985;-62
2022/06/05 00:44:48;;;;;;;;;;;;;;;16.38;41.77;95766.97;5064942;28;19999;-62
2022/06/05 00:47:14;;;;;;;;;;;;;;;16.50;41.25;95772.53;5065267;28;19967;-62
2022/06/05 00:49:44;;;;;;;;;;;;;;;16.50;41.31;95761.78;5042287;28;19983;-62
2022/06/05 00:52:10;;;;;;;;;;;;;;;16.48;41.53;95763.00;5075744;28;20445;-62
2022/06/05 00:54:36;;;;;;;;;;;;;;;16.51;41.18;95758.03;5048424;28;20055;-61
2022/06/05 00:57:01;;;;;;;;;;;;;;;16.42;41.35;95748.56;5059445;28;20063;-62
2022/06/05 00:59:26;;;;;;;;;;;;;;;16.35;41.45;95751.25;5055313;28;19958;-61
2022/06/05 01:01:51;;;;;;;;;;;;;;;16.33;41.43;95756.00;5065418;28;19955;-62
2022/06/05 01:04:23;;;;;;;;;;;;;;;16.34;41.74;95756.81;5047729;28;20335;-61
2022/06/05 01:06:48;;;;;;;;;;;;;;;16.34;41.71;95748.75;5048213;28;19966;-62
2022/06/05 01:09:13;;;;;;;;;;;;;;;16.12;42.29;95754.41;5065561;28;19987;-62
2022/06/05 01:11:46;;;;;;;;;;;;;;;16.33;41.91;95739.06;5064656;28;19958;-61
2022/06/05 01:14:20;;;;;;;;;;;;;;;16.34;41.97;95728.09;5043394;28;19964;-61
2022/06/05 01:16:59;;;;;;;;;;;;;;;16.38;41.77;95723.16;5064464;28;20026;-62
2022/06/05 01:19:43;;;;;;;;;;;;;;;16.35;41.73;95715.53;5064979;28;20300;-61
2022/06/05 01:22:10;;;;;;;;;;;;;;;16.27;41.95;95711.19;5063725;28;20158;-61
2022/06/05 01:24:41;;;;;;;;;;;;;;;16.32;41.90;95713.25;5064554;28;19993;-61
2022/06/05 01:27:08;;;;;;;;;;;;;;;16.35;41.91;95712.84;5047601;28;19973;-61
2022/06/05 01:29:47;;;;;;;;;;;;;;;16.41;41.85;95706.59;5046469;28;19985;-61
2022/06/05 01:32:13;;;;;;;;;;;;;;;16.35;42.08;95707.47;5040275;28;20363;-62
2022/06/05 01:34:38;;;;;;;;;;;;;;;16.38;42.08;95710.56;5035238;28;19960;-62
2022/06/05 01:37:09;;;;;;;;;;;;;;;16.34;42.43;95717.34;5064684;28;19985;-62
2022/06/05 01:39:35;;;;;;;;;;;;;;;16.36;42.30;95699.19;5058775;28;19969;-62
2022/06/05 01:42:02;;;;;;;;;;;;;;;16.36;42.29;95707.25;5060237;28;19956;-62
2022/06/05 01:44:42;;;;;;;;;;;;;;;16.46;41.97;95704.09;5046294;28;20705;-62
2022/06/05 01:47:08;;;;;;;;;;;;;;;16.49;41.80;95689.44;5047154;28;19956;-62
2022/06/05 01:49:44;;;;;;;;;;;;;;;16.47;41.96;95688.81;5037732;28;20439;-63
2022/06/05 01:52:14;;;;;;;;;;;;;;;16.49;42.03;95692.13;5077798;28;20077;-62
2022/06/05 01:54:45;;;;;;;;;;;;;;;16.44;41.99;95687.38;5063610;28;20027;-63
2022/06/05 01:57:10;;;;;;;;;;;;;;;16.38;42.29;95688.22;5064667;28;19972;-63
2022/06/05 01:59:35;;;;;;;;;;;;;;;16.46;42.17;95679.91;5063257;28;19974;-62
2022/06/05 02:02:00;;;;;;;;;;;;;;;16.42;42.03;95667.94;5065654;28;19953;-63
2022/06/05 02:04:30;;;;;;;;;;;;;;;16.41;42.27;95666.31;5046984;28;20033;-63
2022/06/05 02:07:00;;;;;;;;;;;;;;;16.39;42.45;95649.59;5064106;28;20160;-63
2022/06/05 02:09:31;;;;;;;;;;;;;;;16.52;41.86;95646.81;5046453;28;20098;-62
2022/06/05 02:11:56;;;;;;;;;;;;;;;16.46;42.14;95633.44;5038207;28;19978;-61
2022/06/05 02:14:21;;;;;;;;;;;;;;;16.61;41.90;95625.91;5058115;28;19954;-61
2022/06/05 02:16:47;;;;;;;;;;;;;;;16.49;41.81;95620.38;5045795;28;19977;-62
2022/06/05 02:19:13;;;;;;;;;;;;;;;16.51;41.73;95606.72;5064818;28;19955;-62
2022/06/05 02:21:39;;;;;;;;;;;;;;;16.42;42.10;95584.66;5063255;28;20020;-62
2022/06/05 02:24:05;;;;;;;;;;;;;;;16.40;41.87;95586.75;5045691;28;20500;-61
2022/06/05 02:26:30;;;;;;;;;;;;;;;16.32;42.13;95562.81;5063996;28;20457;-61
2022/06/05 02:28:56;;;;;;;;;;;;;;;16.41;41.69;95563.41;5063577;28;20020;-61
2022/06/05 02:31:21;;;;;;;;;;;;;;;16.11;42.26;95556.72;5063375;28;20487;-61
2022/06/05 02:34:05;;;;;;;;;;;;;;;16.34;41.69;95537.38;5064164;28;19954;-61
2022/06/05 02:36:35;;;;;;;;;;;;;;;16.40;41.59;95538.41;5062949;28;19987;-61
2022/06/05 02:39:03;;;;;;;;;;;;;;;16.42;41.06;95540.88;5064149;28;20598;-62
2022/06/05 02:41:34;;;;;;;;;;;;;;;16.38;41.25;95538.63;5062975;28;19967;-62
2022/06/05 02:46:57;;;;;;;;;;;;;;;16.27;41.27;95541.97;5047833;28;19968;-62
2022/06/05 02:49:36;;;;;;;;;;;;;;;16.29;41.36;95533.69;5045762;28;19976;-62
2022/06/05 02:52:02;;;;;;;;;;;;;;;16.30;41.21;95521.91;5050535;28;20497;-62
2022/06/05 02:54:28;;;;;;;;;;;;;;;16.26;41.51;95508.91;5063776;28;19996;-62
2022/06/05 02:56:55;;;;;;;;;;;;;;;16.26;41.31;95490.09;5062418;28;20019;-62
2022/06/05 02:59:20;;;;;;;;;;;;;;;16.17;41.64;95472.63;5063718;28;19990;-62
2022/06/05 03:04:30;;;;;;;;;;;;;;;15.97;42.12;95465.50;5047914;28;20629;-61
2022/06/05 03:06:56;;;;;;;;;;;;;;;15.82;42.38;95451.56;5063018;28;20559;-60
2022/06/05 03:09:21;;;;;;;;;;;;;;;15.98;42.07;95440.31;5057837;28;20237;-61
2022/06/05 03:11:46;;;;;;;;;;;;;;;15.93;42.28;95445.50;5062567;28;19986;-62
2022/06/05 03:14:11;;;;;;;;;;;;;;;15.81;42.24;95448.06;5063577;28;19962;-62
2022/06/05 03:16:37;;;;;;;;;;;;;;;15.79;42.49;95454.69;5062748;28;20311;-61
2022/06/05 03:19:02;;;;;;;;;;;;;;;15.72;42.71;95463.59;5063665;28;19955;-62
2022/06/05 03:21:30;;;;;;;;;;;;;;;15.43;43.09;95464.97;5062324;28;19987;-62
2022/06/05 03:23:56;;;;;;;;;;;;;;;15.73;41.84;95448.31;5059156;28;19992;-62
2022/06/05 03:26:22;;;;;;;;;;;;;;;15.76;42.36;95450.56;5063684;28;20414;-61
2022/06/05 03:28:47;;;;;;;;;;;;;;;15.85;42.02;95443.09;5062521;28;20471;-62
2022/06/05 03:31:12;;;;;;;;;;;;;;;15.85;41.63;95433.16;5063335;28;19963;-62
2022/06/05 03:33:38;;;;;;;;;;;;;;;15.82;41.92;95433.63;5062321;28;20066;-62
2022/06/05 03:36:10;;;;;;;;;;;;;;;15.81;42.32;95439.19;5078483;28;20278;-62
2022/06/05 03:38:35;;;;;;;;;;;;;;;15.77;42.41;95430.72;5062213;28;20322;-62
2022/06/05 03:41:00;;;;;;;;;;;;;;;15.65;42.40;95430.63;5062613;28;19999;-62
2022/06/05 03:43:25;;;;;;;;;;;;;;;15.57;42.66;95429.00;5062594;28;19986;-61
2022/06/05 03:45:58;;;;;;;;;;;;;;;15.52;42.79;95449.41;5063170;28;20424;-62
2022/06/05 03:48:23;;;;;;;;;;;;;;;15.74;42.45;95458.03;5062342;28;20382;-62
2022/06/05 03:50:49;;;;;;;;;;;;;;;15.78;42.52;95477.19;5050210;28;19968;-62
2022/06/05 03:53:14;;;;;;;;;;;;;;;15.92;42.14;95484.16;5062175;28;20608;-62
2022/06/05 03:55:40;;;;;;;;;;;;;;;15.85;42.02;95475.31;5062648;28;20444;-62
2022/06/05 03:58:05;;;;;;;;;;;;;;;15.88;42.29;95474.88;5050053;28;20413;-62
2022/06/05 04:00:30;;;;;;;;;;;;;;;15.96;41.89;95481.84;5050499;28;19984;-62
2022/06/05 04:02:55;;;;;;;;;;;;;;;16.10;41.72;95496.00;5062383;28;20348;-62
2022/06/05 04:05:21;;;;;;;;;;;;;;;16.25;41.58;95496.50;5062183;28;20332;-62
2022/06/05 04:07:46;;;;;;;;;;;;;;;16.17;41.69;95504.84;5060792;28;19980;-65
2022/06/05 04:10:12;;;;;;;;;;;;;;;16.27;41.58;95509.72;5063022;28;20383;-62
2022/06/05 04:12:37;;;;;;;;;;;;;;;16.35;41.47;95497.94;5061038;28;20170;-62
2022/06/05 04:15:03;;;;;;;;;;;;;;;16.28;41.62;95495.25;5062751;28;19960;-62
2022/06/05 04:17:28;;;;;;;;;;;;;;;16.29;41.68;95496.09;5061883;28;19987;-63
2022/06/05 04:19:53;;;;;;;;;;;;;;;16.29;41.69;95493.41;5062395;28;20039;-63
2022/06/05 04:22:19;;;;;;;;;;;;;;;16.41;41.45;95491.69;5051750;28;20025;-67
2022/06/05 04:24:44;;;;;;;;;;;;;;;16.33;41.27;95499.97;5061459;28;20225;-63
2022/06/05 04:27:09;;;;;;;;;;;;;;;16.43;41.42;95510.28;5062465;28;20012;-63
2022/06/05 04:29:34;;;;;;;;;;;;;;;16.58;41.15;95512.63;5062317;28;20000;-63
2022/06/05 04:32:00;;;;;;;;;;;;;;;16.39;41.70;95510.69;5061830;28;20095;-62
2022/06/05 04:34:25;;;;;;;;;;;;;;;16.37;41.64;95511.97;5062806;28;19968;-58
2022/06/05 04:36:50;;;;;;;;;;;;;;;16.50;41.63;95516.44;5061700;28;20370;-62
2022/06/05 04:39:15;;;;;;;;;;;;;;;16.48;41.32;95513.94;5062539;28;20217;-62
2022/06/05 04:41:41;;;;;;;;;;;;;;;16.49;41.71;95518.28;5043702;28;20510;-62
2022/06/05 04:44:07;;;;;;;;;;;;;;;16.50;41.58;95529.84;5062358;28;20019;-61
2022/06/05 04:46:32;;;;;;;;;;;;;;;16.69;40.99;95533.41;5062073;28;19986;-61
2022/06/05 04:48:57;;;;;;;;;;;;;;;16.68;40.49;95537.16;5061562;28;20645;-61
2022/06/05 04:51:23;;;;;;;;;;;;;;;16.56;41.64;95537.06;5062059;28;19951;-65
2022/06/05 04:53:49;;;;;;;;;;;;;;;16.76;41.19;95534.19;5061827;28;20148;-61
2022/06/05 04:56:15;;;;;;;;;;;;;;;16.69;41.38;95546.06;5062249;28;20035;-62
2022/06/05 04:58:40;;;;;;;;;;;;;;;16.67;41.42;95548.13;5048917;28;19958;-62
2022/06/05 05:01:09;;;;;;;;;;;;;;;16.50;40.78;95544.13;5059462;28;19996;-62
2022/06/05 05:03:35;;;;;;;;;;;;;;;16.49;41.64;95549.72;5061852;28;20439;-62
2022/06/05 05:06:00;;;;;;;;;;;;;;;16.77;40.71;95553.84;5061868;28;19958;-62
2022/06/05 05:08:25;;;;;;;;;;;;;;;16.73;41.43;95550.75;5043644;28;19979;-62
2022/06/05 05:10:50;;;;;;;;;;;;;;;17.25;40.63;95555.09;5062436;28;19953;-62
2022/06/05 05:13:16;;;;;;;;;;;;;;;17.43;40.15;95550.75;5061218;28;20531;-62
2022/06/05 05:15:41;;;;;;;;;;;;;;;17.37;39.87;95559.75;5061791;28;20334;-63
2022/06/05 05:18:07;;;;;;;;;;;;;;;17.03;40.37;95557.31;5057732;28;19983;-64
2022/06/05 05:20:32;;;;;;;;;;;;;;;17.49;40.31;95547.19;5064568;28;19974;-63
2022/06/05 05:22:57;;;;;;;;;;;;;;;17.59;39.68;95546.66;5064611;28;20423;-63
2022/06/05 05:25:23;;;;;;;;;;;;;;;17.44;40.01;95549.72;5065141;28;20339;-63
2022/06/05 05:27:48;;;;;;;;;;;;;;;17.51;39.76;95553.16;5052596;28;20368;-63
2022/06/05 05:30:13;;;;;;;;;;;;;;;17.46;39.72;95554.88;5065551;28;20303;-61
2022/06/05 05:32:39;;;;;;;;;;;;;;;17.25;39.35;95560.47;5080175;28;19989;-62
2022/06/05 05:35:04;;;;;;;;;;;;;;;17.15;40.15;95560.16;5065624;28;19986;-62
2022/06/05 05:37:30;;;;;;;;;;;;;;;17.50;39.61;95561.44;5039676;28;19978;-62
2022/06/05 05:42:39;;;;;;;;;;;;;;;17.65;39.37;95540.38;5065069;28;20027;-62
2022/06/05 05:45:05;;;;;;;;;;;;;;;17.75;40.12;95529.06;5060426;28;19984;-62
2022/06/05 05:47:30;;;;;;;;;;;;;;;17.92;39.03;95532.00;5055246;28;20037;-57
2022/06/05 05:49:57;;;;;;;;;;;;;;;17.66;40.06;95530.44;5059372;28;20220;-62
2022/06/05 05:52:22;;;;;;;;;;;;;;;17.63;39.44;95523.63;5063891;28;19975;-58
2022/06/05 05:54:47;;;;;;;;;;;;;;;17.28;40.71;95525.03;5061147;28;19959;-62
2022/06/05 05:57:13;;;;;;;;;;;;;;;17.75;40.11;95529.06;5056570;28;19982;-61
2022/06/05 05:59:38;;;;;;;;;;;;;;;17.82;40.23;95525.47;5053045;28;19987;-61
2022/06/05 06:02:05;;;;;;;;;;;;;;;17.79;39.02;95524.88;5065675;28;19957;-62
2022/06/05 06:04:31;;;;;;;;;;;;;;;17.66;40.21;95519.66;5065271;28;20277;-62
2022/06/05 06:06:56;;;;;;;;;;;;;;;17.88;40.02;95519.22;5064786;28;19976;-61
2022/06/05 06:09:21;;;;;;;;;;;;;;;18.04;39.84;95515.06;5057822;28;20064;-61
2022/06/05 06:11:46;;;;;;;;;;;;;;;17.83;38.90;95500.19;5061848;28;20005;-61
2022/06/05 06:14:12;;;;;;;;;;;;;;;17.60;40.77;95502.53;5064148;28;19960;-61
2022/06/05 06:16:37;;;;;;;;;;;;;;;17.74;39.17;95500.50;5064446;28;20016;-61
2022/06/05 06:19:02;;;;;;;;;;;;;;;18.02;40.01;95482.97;5062107;28;19961;-60
2022/06/05 06:21:28;;;;;;;;;;;;;;;17.94;39.94;95477.09;5064031;28;19986;-58
2022/06/05 06:23:53;;;;;;;;;;;;;;;18.20;39.71;95465.09;5061061;28;20222;-61
2022/06/05 06:26:18;;;;;;;;;;;;;;;17.91;40.16;95463.03;5064763;28;20411;-61
2022/06/05 06:28:43;;;;;;;;;;;;;;;18.23;38.87;95450.34;5063751;28;19963;-62
2022/06/05 06:31:09;;;;;;;;;;;;;;;18.28;39.32;95450.47;5058406;28;20266;-61
2022/06/05 06:33:35;;;;;;;;;;;;;;;17.88;40.19;95441.13;5052586;28;19970;-61
2022/06/05 06:36:01;;;;;;;;;;;;;;;18.25;39.50;95446.38;5063931;28;19981;-57
2022/06/05 06:38:26;;;;;;;;;;;;;;;18.35;39.49;95434.22;5034504;28;20459;-62
2022/06/05 06:41:05;;;;;;;;;;;;;;;18.30;39.46;95429.53;5063689;28;19976;-62
2022/06/05 06:43:30;;;;;;;;;;;;;;;18.36;39.70;95425.06;5051376;28;19958;-62
2022/06/05 06:45:55;;;;;;;;;;;;;;;18.32;39.66;95430.09;5063909;28;20239;-61
2022/06/05 06:48:22;;;;;;;;;;;;;;;18.71;38.94;95418.06;5064275;28;21616;-62
2022/06/05 06:50:48;;;;;;;;;;;;;;;18.94;38.46;95418.03;5064872;28;20038;-61
2022/06/05 06:53:13;;;;;;;;;;;;;;;19.13;37.67;95409.81;5064690;28;19972;-62
2022/06/05 06:55:38;;;;;;;;;;;;;;;18.67;38.95;95399.66;5064475;28;19979;-61
2022/06/05 06:58:03;;;;;;;;;;;;;;;19.23;37.48;95395.72;5064812;28;20009;-61
2022/06/05 07:00:29;;;;;;;;;;;;;;;19.31;37.69;95389.16;5064567;28;19971;-62
2022/06/05 07:02:54;;;;;;;;;;;;;;;19.30;38.20;95368.59;5064800;28;19993;-62
2022/06/05 07:05:19;;;;;;;;;;;;;;;19.75;37.03;95364.28;5062493;28;19974;-62
2022/06/05 07:07:44;;;;;;;;;;;;;;;19.93;37.19;95360.56;5056918;28;20409;-62
2022/06/05 07:10:10;;;;;;;;;;;;;;;20.21;36.73;95360.75;5054068;28;19996;-62
2022/06/05 07:12:35;;;;;;;;;;;;;;;20.45;36.22;95341.66;5076163;28;19972;-58
2022/06/05 07:15:01;;;;;;;;;;;;;;;20.50;35.92;95341.75;5064466;28;19945;-58
2022/06/05 07:17:27;;;;;;;;;;;;;;;20.63;35.83;95345.19;5057832;28;20402;-62
2022/06/05 07:19:52;;;;;;;;;;;;;;;20.75;35.38;95343.19;5059720;28;19994;-61
2022/06/05 07:22:17;;;;;;;;;;;;;;;20.89;35.29;95345.50;5061460;28;19987;-61
2022/06/05 07:24:43;;;;;;;;;;;;;;;20.77;35.31;95351.84;5063059;28;20025;-61
2022/06/05 07:27:08;;;;;;;;;;;;;;;20.54;35.27;95364.50;5064321;28;19995;-62
2022/06/05 07:29:33;;;;;;;;;;;;;;;20.68;35.40;95358.75;5063955;28;19961;-61
2022/06/05 07:31:58;;;;;;;;;;;;;;;20.79;35.30;95371.34;5063989;28;19969;-61
2022/06/05 07:34:24;;;;;;;;;;;;;;;20.67;35.91;95382.28;5063869;28;20151;-62
2022/06/05 07:36:50;;;;;;;;;;;;;;;20.50;36.34;95374.19;5063781;28;20437;-62
2022/06/05 07:39:15;;;;;;;;;;;;;;;20.28;34.54;95369.53;5064076;28;19992;-62
2022/06/05 07:41:40;;;;;;;;;;;;;;;20.34;37.42;95363.16;5061566;28;20017;-63
2022/06/05 07:44:05;;;;;;;;;;;;;;;20.45;36.74;95360.56;5062663;28;19973;-62
2022/06/05 07:46:31;;;;;;;;;;;;;;;20.40;37.20;95368.63;5064223;28;20038;-62
2022/06/05 07:48:56;;;;;;;;;;;;;;;20.35;36.17;95366.66;5044633;28;20003;-62
2022/06/05 07:56:50;;;;;;;;;;;;;;;19.91;37.30;95389.69;5045082;28;20537;-62
2022/06/05 07:59:16;;;;;;;;;;;;;;;19.61;37.34;95395.38;5045204;28;19938;-62
2022/06/05 08:01:41;;;;;;;;;;;;;;;19.70;38.37;95405.56;5060858;28;20353;-62
2022/06/05 08:04:06;;;;;;;;;;;;;;;20.24;36.90;95403.50;5063282;28;19970;-62
2022/06/05 08:06:34;;;;;;;;;;;;;;;20.33;37.26;95406.63;5063666;28;20047;-64
2022/06/05 08:08:59;;;;;;;;;;;;;;;20.31;36.86;95406.88;5063323;28;19962;-59
2022/06/05 08:11:24;;;;;;;;;;;;;;;20.43;35.64;95411.38;5063192;28;19954;-66
2022/06/05 08:13:50;;;;;;;;;;;;;;;20.09;35.19;95404.88;5063886;28;20021;-62
2022/06/05 08:16:15;;;;;;;;;;;;;;;19.99;35.75;95406.59;5062965;28;19973;-65
2022/06/05 08:18:40;;;;;;;;;;;;;;;19.79;37.68;95411.34;5063843;28;19942;-58
2022/06/05 08:21:05;;;;;;;;;;;;;;;20.15;36.66;95413.91;5063067;28;19970;-61
2022/06/05 08:23:31;;;;;;;;;;;;;;;20.19;36.71;95416.94;5063078;28;19964;-61
2022/06/05 08:25:56;;;;;;;;;;;;;;;20.19;36.19;95416.94;5056553;28;20410;-60
2022/06/05 08:28:23;;;;;;;;;;;;;;;20.27;35.77;95418.41;5052010;28;19960;-61
2022/06/05 08:30:49;;;;;;;;;;;;;;;20.26;34.69;95411.38;5063740;28;19954;-61
2022/06/05 08:33:14;;;;;;;;;;;;;;;20.47;36.48;95418.72;5063793;28;19967;-61
2022/06/05 08:35:39;;;;;;;;;;;;;;;20.26;37.28;95417.59;5062218;28;19989;-61
2022/06/05 08:41:27;;;;;;;;;;;;;;;20.15;35.49;95423.91;5043073;28;20453;-61
2022/06/05 08:43:58;;;;;;;;;;;;;;;20.28;37.10;95420.88;5014980;28;19978;-61
2022/06/05 08:46:26;;;;;;;;;;;;;;;20.26;36.84;95430.28;5058652;28;20275;-61
2022/06/05 08:49:03;;;;;;;;;;;;;;;20.25;36.23;95434.88;5060793;28;20019;-62
2022/06/05 08:51:48;;;;;;;;;;;;;;;19.90;37.45;95438.56;5070178;28;19953;-61
2022/06/05 08:54:32;;;;;;;;;;;;;;;19.84;36.65;95433.06;5057742;28;19984;-61
2022/06/05 08:57:02;;;;;;;;;;;;;;;19.93;36.96;95440.78;5064768;28;19974;-61
2022/06/05 08:59:56;;;;;;;;;;;;;;;19.94;37.10;95442.41;5048617;28;20443;-60
2022/06/05 09:02:23;;;;;;;;;;;;;;;19.67;37.88;95451.94;5050523;28;19995;-61
2022/06/05 09:04:49;;;;;;;;;;;;;;;19.85;37.33;95445.50;5066434;28;20380;-61
2022/06/05 09:07:16;;;;;;;;;;;;;;;19.93;37.00;95446.19;5049192;28;19950;-62
2022/06/05 09:09:44;;;;;;;;;;;;;;;19.95;37.83;95441.34;5052079;28;20484;-61
2022/06/05 09:12:14;;;;;;;;;;;;;;;20.06;37.95;95445.91;5064987;28;19964;-61
2022/06/05 09:14:42;;;;;;;;;;;;;;;20.07;37.88;95441.31;5081550;28;20003;-61
2022/06/05 09:17:14;;;;;;;;;;;;;;;19.99;38.58;95434.44;5065912;28;20045;-61
2022/06/05 09:19:40;;;;;;;;;;;;;;;20.18;38.20;95436.91;5057786;28;20039;-59
2022/06/05 09:22:09;;;;;;;;;;;;;;;20.30;38.02;95436.84;5064785;28;20383;-60
2022/06/05 09:24:38;;;;;;;;;;;;;;;20.40;38.49;95426.22;5061754;28;19975;-60
2022/06/05 09:27:08;;;;;;;;;;;;;;;20.57;38.31;95428.09;5065653;28;20443;-60
2022/06/05 09:29:34;;;;;;;;;;;;;;;20.63;38.34;95426.31;5064496;28;20317;-61
2022/06/05 09:31:59;;;;;;;;;;;;;;;20.70;38.23;95416.94;5064754;28;20026;-61
2022/06/05 09:34:38;;;;;;;;;;;;;;;20.75;38.30;95405.38;5055441;28;19936;-61
2022/06/05 09:37:03;;;;;;;;;;;;;;;20.94;37.96;95405.09;5046946;28;20438;-63
2022/06/05 09:39:30;;;;;;;;;;;;;;;20.87;37.18;95405.25;5065883;28;19977;-60
2022/06/05 09:42:11;;;;;;;;;;;;;;;21.05;37.60;95404.16;5056300;28;20283;-61
2022/06/05 09:44:45;;;;;;;;;;;;;;;21.25;37.33;95394.66;5057798;28;20275;-62
2022/06/05 09:47:27;;;;;;;;;;;;;;;21.30;36.69;95405.56;5075100;28;19940;-62
2022/06/05 09:49:54;;;;;;;;;;;;;;;21.18;35.79;95396.75;5072059;28;20060;-62
2022/06/05 09:52:24;;;;;;;;;;;;;;;21.46;35.84;95395.75;5042636;28;19954;-62
2022/06/05 09:55:00;;;;;;;;;;;;;;;21.36;34.01;95395.63;5055661;28;20325;-60
2022/06/05 10:00:15;;;;;;;;;;;;;;;21.56;35.22;95395.03;5070425;28;20002;-62
2022/06/05 10:02:41;;;;;;;;;;;;;;;21.71;35.33;95393.56;5067425;28;20263;-62
2022/06/05 10:05:12;;;;;;;;;;;;;;;21.93;35.24;95390.00;5073099;28;19998;-61
2022/06/05 10:07:38;;;;;;;;;;;;;;;21.93;35.51;95390.00;5062269;28;19994;-62
2022/06/05 10:10:04;;;;;;;;;;;;;;;22.04;34.71;95375.47;5072763;28;19937;-62
2022/06/05 10:12:54;;;;;;;;;;;;;;;22.01;33.86;95381.41;5059352;28;20001;-62
2022/06/05 10:15:27;;;;;;;;;;;;;;;21.99;34.96;95378.94;5047258;28;20320;-61
2022/06/05 10:17:54;;;;;;;;;;;;;;;21.72;33.79;95365.41;5046545;28;19966;-65
2022/06/05 10:20:22;;;;;;;;;;;;;;;21.59;35.32;95372.06;5046379;28;19953;-63
2022/06/05 10:22:49;;;;;;;;;;;;;;;21.78;34.95;95356.25;5063970;28;20122;-64
2022/06/05 10:25:23;;;;;;;;;;;;;;;22.07;34.10;95350.56;5073194;28;20396;-63
2022/06/05 10:27:53;;;;;;;;;;;;;;;22.18;33.89;95356.06;5066363;28;20433;-63
2022/06/05 10:30:19;;;;;;;;;;;;;;;22.21;34.11;95355.53;5061585;28;19938;-64
2022/06/05 10:32:56;;;;;;;;;;;;;;;22.08;32.60;95352.19;5054130;28;19959;-63
2022/06/05 10:35:23;;;;;;;;;;;;;;;22.23;34.64;95351.50;5069044;28;19964;-64
2022/06/05 10:37:48;;;;;;;;;;;;;;;22.12;33.71;95339.75;5032900;28;19934;-64
2022/06/05 10:40:14;;;;;;;;;;;;;;;22.21;34.55;95344.69;5050007;28;20323;-64
2022/06/05 10:42:45;;;;;;;;;;;;;;;22.26;34.14;95332.00;5032419;28;19930;-64
2022/06/05 10:45:19;;;;;;;;;;;;;;;22.46;34.23;95326.97;5049688;28;19968;-63
2022/06/05 10:47:48;;;;;;;;;;;;;;;22.48;34.60;95325.66;5059349;28;19994;-63
2022/06/05 10:50:21;;;;;;;;;;;;;;;22.53;34.46;95330.28;5067415;28;19919;-63
2022/06/05 10:52:57;;;;;;;;;;;;;;;22.33;34.42;95322.84;5050604;28;20210;-63
2022/06/05 10:55:30;;;;;;;;;;;;;;;22.37;34.26;95313.91;5065866;28;19966;-64
2022/06/05 10:57:59;;;;;;;;;;;;;;;22.44;34.42;95310.16;5040571;28;19954;-64
2022/06/05 11:00:25;;;;;;;;;;;;;;;22.52;34.61;95306.94;5052289;28;19958;-65
2022/06/05 11:03:01;;;;;;;;;;;;;;;22.53;34.72;95309.41;5070456;28;20320;-65
2022/06/05 11:05:38;;;;;;;;;;;;;;;22.65;34.04;95309.22;5041118;28;20498;-65
2022/06/05 11:08:07;;;;;;;;;;;;;;;22.61;33.50;95305.38;5055714;28;19961;-65
2022/06/05 11:13:42;;;;;;;;;;;;;;;22.43;33.90;95298.47;5062946;28;20643;-62
2022/06/05 11:16:22;;;;;;;;;;;;;;;22.49;33.98;95291.19;5036650;28;19963;-62
2022/06/05 11:19:08;;;;;;;;;;;;;;;22.55;34.20;95287.47;5076590;28;20017;-63
2022/06/05 11:21:33;;;;;;;;;;;;;;;22.66;33.96;95281.00;5062275;28;19962;-64
2022/06/05 11:23:58;;;;;;;;;;;;;;;22.82;34.22;95278.38;5065181;28;19931;-64
2022/06/05 11:26:36;;;;;;;;;;;;;;;23.05;33.42;95270.84;5035720;28;19928;-65
2022/06/05 11:29:10;;;;;;;;;;;;;;;23.22;32.43;95264.38;5060808;28;19927;-63
2022/06/05 11:31:54;;;;;;;;;;;;;;;23.33;31.99;95265.22;5062173;28;19926;-63
2022/06/05 11:34:38;;;;;;;;;;;;;;;23.68;32.42;95250.84;5050400;28;20476;-63
2022/06/05 11:37:16;;;;;;;;;;;;;;;23.91;32.97;95265.00;5053224;28;20339;-63
2022/06/05 11:39:56;;;;;;;;;;;;;;;24.05;31.78;95250.84;5045411;28;19925;-63
2022/06/05 11:42:42;;;;;;;;;;;;;;;24.06;30.16;95256.00;5062897;28;20332;-64
2022/06/05 11:45:15;;;;;;;;;;;;;;;24.36;31.60;95258.97;5049160;28;20027;-63
2022/06/05 11:47:43;;;;;;;;;;;;;;;24.51;31.77;95249.16;5062399;28;19986;-63
2022/06/05 11:50:26;;;;;;;;;;;;;;;24.62;31.74;95256.19;5044243;28;19928;-63
2022/06/05 11:53:10;;;;;;;;;;;;;;;24.83;31.21;95258.81;5052943;28;19925;-63
2022/06/05 11:55:56;;;;;;;;;;;;;;;25.04;31.91;95253.28;5051133;28;19912;-63
2022/06/05 11:58:24;;;;;;;;;;;;;;;25.22;30.44;95251.84;5064735;28;19951;-63
2022/06/05 12:00:51;;;;;;;;;;;;;;;25.10;29.66;95260.34;5057518;28;20381;-62
2022/06/05 12:03:18;;;;;;;;;;;;;;;25.06;30.10;95259.28;5043667;28;20518;-60
2022/06/05 12:05:52;;;;;;;;;;;;;;;25.12;30.01;95265.50;5043573;28;20023;-60
2022/06/05 12:08:36;;;;;;;;;;;;;;;24.70;30.67;95252.88;5062260;28;19963;-60
2022/06/05 12:11:02;;;;;;;;;;;;;;;24.70;29.55;95255.59;5062732;28;19916;-60
2022/06/05 12:13:30;;;;;;;;;;;;;;;24.53;30.82;95257.81;5059128;28;19928;-62
2022/06/05 12:16:03;;;;;;;;;;;;;;;24.13;30.21;95250.28;5069254;28;19959;-62
2022/06/05 12:18:35;;;;;;;;;;;;;;;24.02;30.83;95252.22;5058447;28;19917;-62
2022/06/05 12:21:06;;;;;;;;;;;;;;;23.91;30.60;95256.03;5060771;28;20066;-63
2022/06/05 12:23:33;;;;;;;;;;;;;;;23.89;31.02;95256.31;5052496;28;19924;-63
2022/06/05 12:26:21;;;;;;;;;;;;;;;23.58;32.33;95241.91;5062713;28;19985;-63
2022/06/05 12:28:47;;;;;;;;;;;;;;;23.53;31.96;95242.72;5051133;28;19963;-59
2022/06/05 12:31:17;;;;;;;;;;;;;;;23.61;32.74;95231.28;5059848;28;19934;-58
2022/06/05 12:33:59;;;;;;;;;;;;;;;23.36;33.05;95237.53;5047228;28;20057;-62
2022/06/05 12:36:27;;;;;;;;;;;;;;;23.03;33.16;95241.25;5065464;28;19972;-62
2022/06/05 12:38:54;;;;;;;;;;;;;;;22.76;34.49;95230.56;5041388;28;20448;-62
2022/06/05 12:41:23;;;;;;;;;;;;;;;22.55;33.26;95229.69;5059064;28;19951;-66
2022/06/05 12:43:52;;;;;;;;;;;;;;;22.18;35.68;95243.03;5075911;28;19971;-63
2022/06/05 12:46:20;;;;;;;;;;;;;;;21.75;36.50;95245.69;5065100;28;20004;-63
2022/06/05 12:48:46;;;;;;;;;;;;;;;21.58;37.01;95238.53;5038804;28;19959;-64
2022/06/05 12:51:15;;;;;;;;;;;;;;;21.47;36.39;95250.34;5059609;28;19944;-65
2022/06/05 12:53:49;;;;;;;;;;;;;;;21.26;37.36;95247.44;5033722;28;20268;-64
2022/06/05 12:56:43;;;;;;;;;;;;;;;21.37;38.25;95249.19;5042010;28;20521;-63
2022/06/05 12:59:21;;;;;;;;;;;;;;;21.32;38.19;95257.28;5055225;28;20472;-62
2022/06/05 13:01:52;;;;;;;;;;;;;;;21.35;37.15;95250.53;5062039;28;20401;-63
2022/06/05 13:04:26;;;;;;;;;;;;;;;21.23;37.73;95251.47;5044472;28;19987;-63
2022/06/05 13:07:10;;;;;;;;;;;;;;;20.89;36.97;95251.66;5047800;28;19941;-63
2022/06/05 13:09:44;;;;;;;;;;;;;;;20.75;38.05;95251.22;5052947;28;19959;-62
2022/06/05 13:12:18;;;;;;;;;;;;;;;20.70;38.66;95256.56;5075699;28;20164;-62
2022/06/05 13:14:46;;;;;;;;;;;;;;;20.91;37.08;95252.22;5056972;28;19969;-59
2022/06/05 13:17:30;;;;;;;;;;;;;;;20.98;37.22;95249.31;5037589;28;19994;-56
2022/06/05 13:19:57;;;;;;;;;;;;;;;20.94;37.94;95242.78;5065723;28;20335;-62